Flight Track Log - Related Links

Times and Time Zones

All times are in EDT time to prevent confusion due to time zone crossing. See the ASA525 flight status page for this flight to view local times or setup timezone preferences in your user account.


Time Position Orientation Groundspeed Altitude Reporting Facility
EDT Latitude Longitude Course Direction KTS MPH feet Rate Location/Type
Fri 02:02:47 PM 34.1667 -118.3833 253° West 164 189 3,800  Level Southern California TRACON
Fri 02:03:47 PM 34.1500 -118.4500 253° West 228 262 5,300 2,389 Climbing Southern California TRACON
Fri 02:06:18 PM 34.3081 -118.5711 328° Northwest 298 343 12,200 2,225 Climbing Los Angeles Center
Fri 02:07:20 PM 34.3847 -118.6153 335° Northwest 311 358 13,200 768 Climbing Los Angeles Center
Fri 02:08:23 PM 34.4608 -118.6592 335° Northwest 303 349 13,800 1,440 Climbing Los Angeles Center
Fri 02:09:25 PM 34.5378 -118.7039 334° Northwest 307 353 16,200 2,468 Climbing Los Angeles Center
Fri 02:10:27 PM 34.6322 -118.7606 334° Northwest 319 367 18,900 1,694 Climbing Los Angeles Center
Fri 02:11:29 PM 34.7122 -118.8089 334° Northwest 321 369 19,700 1,887 Climbing Los Angeles Center
Fri 02:12:31 PM 34.7933 -118.8556 335° Northwest 322 371 22,800 2,758 Climbing Los Angeles Center
Fri 02:13:33 PM 34.8825 -118.8928 341° North 337 388 25,400 1,742 Climbing Los Angeles Center
Fri 02:14:35 PM 34.9928 -118.9342 343° North 365 420 26,400 1,210 Climbing Los Angeles Center
Fri 02:15:37 PM 35.1039 -118.9789 342° North 421 484 27,900 1,548 Climbing Los Angeles Center
Fri 02:16:39 PM 35.2208 -119.0233 343° North 436 502 29,600 1,935 Climbing Los Angeles Center
Fri 02:17:41 PM 35.3397 -119.0681 343° North 447 514 31,900 1,920 Climbing Los Angeles Center
Fri 02:18:44 PM 35.4564 -119.1136 342° North 442 509 33,600 1,920 Climbing Los Angeles Center
Fri 02:19:46 PM 35.5947 -119.1689 342° North 439 505 35,900 1,161 Climbing Los Angeles Center
Fri 02:20:48 PM 35.7078 -119.2136 342° North 434 499 36,000 77 Climbing Los Angeles Center
Fri 02:21:04 PM 35.7247 -119.2200 343° North 420 483 36,000  Level Oakland Center
Fri 02:22:05 PM 35.8406 -119.2656 342° North 432 497 36,000  Level Oakland Center
Fri 02:23:07 PM 35.9544 -119.3103 342° North 430 495 36,000  Level Oakland Center
Fri 02:24:08 PM 36.0883 -119.3633 342° North 427 491 36,000  Level Oakland Center
Fri 02:25:10 PM 36.2017 -119.4092 342° North 432 497 36,000  Level Oakland Center
Fri 02:26:11 PM 36.3161 -119.4531 343° North 434 499 36,000  Level Oakland Center
Fri 02:27:13 PM 36.4300 -119.4997 342° North 434 499 36,000  Level Oakland Center
Fri 02:28:14 PM 36.5447 -119.5447 343° North 432 497 36,000  Level Oakland Center
Fri 02:29:16 PM 36.6583 -119.5911 342° North 432 497 36,000  Level Oakland Center
Fri 02:30:17 PM 36.7722 -119.6372 342° North 431 496 36,000  Level Oakland Center
Fri 02:31:19 PM 36.9089 -119.6953 341° North 434 499 36,000  Level Oakland Center
Fri 02:32:20 PM 37.0222 -119.7414 342° North 429 494 36,000  Level Oakland Center
Fri 02:33:22 PM 37.1361 -119.7883 342° North 430 495 36,000  Level Oakland Center
Fri 02:34:23 PM 37.2464 -119.8342 342° North 432 497 36,000  Level Oakland Center
Fri 02:35:25 PM 37.3600 -119.8806 342° North 432 497 36,000  Level Oakland Center
Fri 02:36:26 PM 37.4747 -119.9289 342° North 434 499 36,000  Level Oakland Center
Fri 02:37:28 PM 37.5897 -119.9750 342° North 437 503 36,000  Level Oakland Center
Fri 02:38:29 PM 37.7289 -120.0292 343° North 448 516 36,000  Level Oakland Center
Fri 02:39:31 PM 37.8419 -120.0769 342° North 435 501 36,000  Level Oakland Center
Fri 02:40:33 PM 37.9589 -120.1192 344° North 437 503 36,000  Level Oakland Center
Fri 02:41:34 PM 38.0761 -120.1542 347° North 433 498 36,000  Level Oakland Center
Fri 02:42:36 PM 38.1939 -120.1900 347° North 435 501 36,000  Level Oakland Center
Fri 02:43:37 PM 38.3097 -120.2264 346° North 431 496 36,000  Level Oakland Center
Fri 02:44:39 PM 38.4253 -120.2628 346° North 429 494 36,000  Level Oakland Center
Fri 02:45:40 PM 38.5403 -120.2997 346° North 429 494 36,000  Level Oakland Center
Fri 02:46:41 PM 38.6811 -120.3425 347° North 434 499 36,000  Level Oakland Center
Fri 02:47:43 PM 38.7956 -120.3786 346° North 430 495 36,000  Level Oakland Center
Fri 02:48:44 PM 38.9114 -120.4144 346° North 429 494 36,000  Level Oakland Center
Fri 02:49:46 PM 39.0275 -120.4517 346° North 430 495 36,000  Level Oakland Center
Fri 02:50:47 PM 39.1436 -120.4878 346° North 431 496 36,000  Level Oakland Center
Fri 02:51:49 PM 39.2592 -120.5253 346° North 431 496 36,000  Level Oakland Center
Fri 02:52:50 PM 39.3753 -120.5622 346° North 431 496 36,000  Level Oakland Center
Fri 02:53:52 PM 39.5153 -120.6067 346° North 431 496 36,000  Level Oakland Center
Fri 02:54:53 PM 39.6322 -120.6453 346° North 434 499 36,000  Level Oakland Center
Fri 02:55:55 PM 39.7478 -120.6819 346° North 431 496 36,000  Level Oakland Center
Fri 02:56:56 PM 39.8636 -120.7208 346° North 430 495 36,000  Level Oakland Center
Fri 02:57:58 PM 39.9800 -120.7583 346° North 432 497 36,000  Level Oakland Center
Fri 02:58:59 PM 40.1039 -120.7969 347° North 433 498 36,000  Level Oakland Center
Fri 03:00:01 PM 40.2194 -120.8333 346° North 430 495 36,000  Level Oakland Center
Fri 03:01:02 PM 40.3364 -120.8731 345° North 436 502 36,000  Level Oakland Center
Fri 03:02:04 PM 40.4522 -120.9119 346° North 432 497 36,000  Level Oakland Center
Fri 03:03:05 PM 40.5792 -120.9531 346° North 435 501 36,000  Level Oakland Center
Fri 03:04:07 PM 40.6964 -120.9931 345° North 435 501 36,000  Level Oakland Center
Fri 03:05:08 PM 40.8128 -121.0333 345° North 435 501 36,000  Level Oakland Center
Fri 03:06:10 PM 40.9322 -121.0714 346° North 443 510 36,000  Level Oakland Center
Fri 03:07:11 PM 41.0503 -121.1097 346° North 438 504 36,000  Level Oakland Center
Fri 03:08:13 PM 41.1939 -121.1497 348° North 441 507 36,000  Level Oakland Center
Fri 03:09:17 PM 41.3133 -121.1881 346° North 438 504 36,000  Level Seattle Center
Fri 03:10:18 PM 41.4308 -121.2231 347° North 436 502 36,000  Level Seattle Center
Fri 03:11:20 PM 41.5503 -121.2578 348° North 440 506 36,000  Level Seattle Center
Fri 03:12:21 PM 41.6678 -121.2933 347° North 435 501 36,000  Level Seattle Center
Fri 03:13:22 PM 41.7853 -121.3281 348° North 434 499 36,000  Level Seattle Center
Fri 03:14:23 PM 41.9019 -121.3628 348° North 432 497 36,000  Level Seattle Center
Fri 03:15:24 PM 42.0408 -121.4047 347° North 429 494 36,000  Level Seattle Center
Fri 03:16:25 PM 42.1569 -121.4400 347° North 431 496 36,000  Level Seattle Center
Fri 03:17:26 PM 42.2742 -121.4750 348° North 433 498 36,000  Level Seattle Center
Fri 03:18:27 PM 42.3919 -121.5108 347° North 437 503 36,000  Level Seattle Center
Fri 03:19:29 PM 42.5097 -121.5450 348° North 435 501 36,000  Level Seattle Center
Fri 03:20:30 PM 42.6278 -121.5822 347° North 437 503 36,000  Level Seattle Center
Fri 03:21:31 PM 42.7467 -121.6183 347° North 438 504 36,000  Level Seattle Center
Fri 03:22:32 PM 42.8656 -121.6544 347° North 438 504 36,000  Level Seattle Center
Fri 03:23:33 PM 43.0069 -121.6978 347° North 434 499 36,000  Level Seattle Center
Fri 03:24:34 PM 43.1256 -121.7383 346° North 437 503 36,000  Level Seattle Center
Fri 03:25:35 PM 43.2433 -121.7744 347° North 434 499 36,000  Level Seattle Center
Fri 03:26:36 PM 43.3617 -121.8119 347° North 436 502 36,000  Level Seattle Center
Fri 03:27:37 PM 43.4811 -121.8494 347° North 440 506 36,000  Level Seattle Center
Fri 03:28:39 PM 43.5931 -121.8814 348° North 436 502 36,000  Level Seattle Center
Fri 03:29:40 PM 43.7119 -121.9192 347° North 439 505 36,000  Level Seattle Center
Fri 03:30:41 PM 43.8517 -121.9633 347° North 432 497 36,000  Level Seattle Center
Fri 03:31:42 PM 43.9694 -122.0014 347° North 435 501 36,000  Level Seattle Center
Fri 03:32:43 PM 44.0864 -122.0394 347° North 433 498 36,000  Level Seattle Center
Fri 03:33:44 PM 44.2033 -122.0761 347° North 434 499 36,000  Level Seattle Center
Fri 03:34:45 PM 44.3203 -122.1150 347° North 433 498 36,000  Level Seattle Center
Fri 03:35:46 PM 44.4378 -122.1528 347° North 434 499 36,000  Level Seattle Center
Fri 03:36:47 PM 44.5533 -122.1911 347° North 431 496 36,000  Level Seattle Center
Fri 03:37:48 PM 44.6700 -122.2306 346° North 434 499 36,000  Level Seattle Center
Fri 03:38:49 PM 44.7886 -122.2692 347° North 438 504 36,000  Level Seattle Center
Fri 03:39:50 PM 44.9156 -122.3117 347° North 442 509 36,000  Level Seattle Center
Fri 03:40:51 PM 45.0333 -122.3506 347° North 438 504 36,000  Level Seattle Center
Fri 03:41:53 PM 45.1503 -122.3900 347° North 434 499 36,000  Level Seattle Center
Fri 03:42:54 PM 45.2658 -122.4294 346° North 430 495 36,000  Level Seattle Center
Fri 03:43:55 PM 45.3811 -122.4672 347° North 427 491 36,000  Level Seattle Center
Fri 03:44:56 PM 45.5175 -122.5131 347° North 424 488 36,000  Level Seattle Center
Fri 03:45:57 PM 45.6328 -122.5533 346° North 426 490 36,000  Level Seattle Center
Fri 03:46:58 PM 45.7458 -122.5917 347° North 423 487 36,000  Level Seattle Center
Fri 03:47:59 PM 45.8619 -122.6194 351° North 426 490 36,000 -98 Level Seattle Center
Fri 03:49:00 PM 45.9794 -122.6459 352° North  Level FlightAware Approximate
Fri 03:49:00 PM 45.9794 -122.6489 352° North 430 495 35,800  Level Seattle Center
Fri 03:50:01 PM 46.0969 -122.6761 351° North 430 495 32,700 -2,803 Descending Seattle Center
Fri 03:51:02 PM 46.2144 -122.7403 339° North 419 482 30,100 -2,066 Descending Seattle Center
Fri 03:52:03 PM 46.2756 -122.8581 307° West 381 438 28,500 -1,561 Descending Seattle Center
Fri 03:53:05 PM 46.3789 -122.8658 357° North 391 450 26,900 -1,805 Descending Seattle Center
Fri 03:54:06 PM 46.4842 -122.8264 14° North 395 455 24,800 -2,066 Descending Seattle Center
Fri 03:55:07 PM 46.5867 -122.7894 14° North 384 442 22,700 -2,115 Descending Seattle Center
Fri 03:56:08 PM 46.6869 -122.7517 14° North 376 433 20,500 -2,227 Descending Seattle Center
Fri 03:56:44 PM 46.7600 -122.7228 15° North 361 415 19,100 -2,182 Descending Seattle Center
Fri 03:57:03 PM 46.7889 -122.7136 12° North 351 404 18,500 -1,884 Descending Seattle Center
Fri 03:58:10 PM 46.8747 -122.6319 33° Northeast 343 395 16,400 -1,843 Descending Seattle Center
Fri 03:59:10 PM 46.9572 -122.5550 32° Northeast 329 379 14,600 -1,670 Descending Seattle Center
Fri 04:00:05 PM 47.0292 -122.5228 17° North 313 360 13,200 -1,500 Descending Seattle Center
Fri 04:01:06 PM 47.1175 -122.4942 12° North 298 343 11,700 -1,377 Descending Seattle Center
Fri 04:02:07 PM 47.1961 -122.4806 North 288 331 10,400 -1,209 Descending Seattle Center
Fri 04:03:15 PM 47.2733 -122.4672 North 280 322 9,100 -1,033 Descending Seattle Center
Fri 04:04:09 PM 47.3497 -122.4556 North 277 319 8,300 -934 Descending Seattle Center
Fri 04:05:17 PM 47.4342 -122.4556 360° North 255 293 7,200 -984 Descending Seattle Center
Fri 04:06:11 PM 47.4919 -122.4561 360° North 241 277 6,300 -1,148 Descending Seattle Center
Fri 04:07:12 PM 47.5567 -122.4567 360° North 233 268 5,000 -1,230 Descending Seattle Center
Fri 04:08:13 PM 47.6244 -122.4522 North 225 259 3,800 -930 Descending Seattle Center
Fri 04:09:21 PM 47.6367 -122.3608 79° East 218 251 3,000 -397 Descending Seattle Center
Fri 04:10:14 PM 47.5947 -122.3175 145° Southeast 201 231 3,000 -590 Level Seattle Center
Fri 04:11:23 PM 47.5336 -122.3178 180° South 191 220 1,800 -877 Descending Seattle Center
Fri 04:12:24 PM 47.4981 -122.3175 180° South 164 189 1,100 -689 Descending Seattle Center
Fri 04:13:25 PM 47.4592 -122.3186 181° South 130 150 400 -689 Descending Seattle Center
Fri 04:15:00 PM 47.4499 -122.3118 170° South  Level Estimated

Login

Don't have an account? Register now (free) for customized features, flight alerts, and more!